This is the latest recevied weather packets stored in our database for station/object K6CRS-15. If no packets are shown the sender has not sent any weather packets the latest 10 day(s).
| Time | Temp. | Humidity | Pressure | Rain* | Wind** | Luminosity | Snow |
|---|---|---|---|---|---|---|---|
| 1777366855 | 8.89° C | 80% | 1017 hPa | 0 mm | - | - | - |
| 1777361449 | 8.89° C | 82% | 1017.8 hPa | 0 mm | - | - | - |
| 1777356944 | 9.44° C | 82% | 1017.6 hPa | 0 mm | - | - | - |
| 1777351543 | 10.56° C | 75% | 1017.2 hPa | 0 mm | - | - | - |
| 1777348854 | 11.67° C | 71% | 1016.7 hPa | 0 mm | - | - | - |
| 1777342544 | 14.44° C | 60% | 1015.5 hPa | 0 mm | - | - | - |
| 1777339848 | 15° C | 58% | 1015.4 hPa | 0 mm | - | - | - |
| 1777335350 | 16.67° C | 51% | 1014.9 hPa | 0 mm | - | - | - |
| 1777333546 | 17.22° C | 49% | 1014.6 hPa | 0 mm | - | - | - |
| 1777331743 | 17.78° C | 48% | 1014.5 hPa | 0 mm | - | - | - |
| 1777328145 | 18.33° C | 47% | 1014.7 hPa | 0 mm | - | - | - |
| 1777326343 | 17.78° C | 46% | 1015 hPa | 0 mm | - | - | - |
| 1777313746 | 16.67° C | 50% | 1015.6 hPa | 0 mm | - | - | - |
| 1777312851 | 16.11° C | 49% | 1015.5 hPa | 0 mm | - | - | - |
| 1777311941 | 15.56° C | 52% | 1015.5 hPa | 0 mm | - | - | - |
| 1777306550 | 13.33° C | 66% | 1015.1 hPa | 0 mm | - | - | - |
| 1777302051 | 12.22° C | 77% | 1015.1 hPa | 0 mm | - | - | - |
| 1777301146 | 12.22° C | 79% | 1015 hPa | 0 mm | - | - | - |
| 1777295747 | 8.33° C | 89% | 1014.4 hPa | 0 mm | - | - | - |
| 1777293068 | 8.89° C | 88% | 1014.2 hPa | 0 mm | - | - | - |
| 1777287643 | 9.44° C | 87% | 1014.4 hPa | 0 mm | - | - | - |
| 1777286744 | 10° C | 85% | 1014.3 hPa | 0 mm | - | - | - |
| 1777284046 | 10° C | 85% | 1014.4 hPa | 0 mm | - | - | - |
| 1777283156 | 10° C | 85% | 1014.4 hPa | 0 mm | - | - | - |
| 1777282245 | 10.56° C | 85% | 1014.4 hPa | 0 mm | - | - | - |
* Rain latest hour (hover to see other rain measurements)
** Current wind speed in m/s (hover to see current wind gust speed)